Time;durP1;ratioP1;P1;durP2;ratioP2;P2;SDS_P1;SDS_P2;PMS_P1;PMS_P2;Temp;Humidity;BMP_temperature;BMP_pressure;BME280_temperature;BME280_humidity;BME280_pressure;Samples;Min_cycle;Max_cycle;Signal;HPM_P1;HPM_P2
2021/05/18 00:00:57;;;;;;;25.73;14.50;;;;;;;;;;4912093;29;20471;-56
2021/05/18 00:03:24;;;;;;;27.58;14.50;;;;;;;;;;4913065;29;20119;-57
2021/05/18 00:05:55;;;;;;;18.25;12.27;;;;;;;;;;4910644;29;20044;-55
2021/05/18 00:08:24;;;;;;;31.92;15.13;;;;;;;;;;4907943;29;20126;-53
2021/05/18 00:13:47;;;;;;;23.50;13.82;;;;;;;;;;4907075;29;20044;-54
2021/05/18 00:16:13;;;;;;;29.20;15.45;;;;;;;;;;4913402;29;20039;-54
2021/05/18 00:18:41;;;;;;;27.63;14.23;;;;;;;;;;4908179;29;20151;-56
2021/05/18 00:21:08;;;;;;;23.70;14.95;;;;;;;;;;4904311;29;20046;-56
2021/05/18 00:23:36;;;;;;;28.70;14.88;;;;;;;;;;4911000;29;20062;-54
2021/05/18 00:26:04;;;;;;;28.85;14.55;;;;;;;;;;4906958;29;20068;-56
2021/05/18 00:28:30;;;;;;;;;;;;;;;;;;4909420;29;20091;-56
2021/05/18 00:30:57;;;;;;;26.95;14.07;;;;;;;;;;4906841;29;19923;-53
2021/05/18 00:33:24;;;;;;;17.83;11.73;;;;;;;;;;4906952;29;20076;-54
2021/05/18 00:35:51;;;;;;;32.00;14.85;;;;;;;;;;4911715;29;20296;-53
2021/05/18 00:38:18;;;;;;;27.40;15.70;;;;;;;;;;4910568;29;20512;-56
2021/05/18 00:40:50;;;;;;;23.35;13.18;;;;;;;;;;4910101;29;20636;-56
2021/05/18 00:43:17;;;;;;;30.13;14.27;;;;;;;;;;4891284;29;20068;-56
2021/05/18 00:45:48;;;;;;;34.75;15.52;;;;;;;;;;4909161;29;20044;-55
2021/05/18 00:48:16;;;;;;;28.65;15.93;;;;;;;;;;4911122;29;20500;-55
2021/05/18 00:50:45;;;;;;;24.45;16.05;;;;;;;;;;4889698;29;20055;-57
2021/05/18 00:53:12;;;;;;;25.60;15.35;;;;;;;;;;4892364;29;20047;-56
2021/05/18 00:56:04;;;;;;;22.27;12.80;;;;;;;;;;4901513;29;20065;-56
2021/05/18 00:58:33;;;;;;;26.23;14.50;;;;;;;;;;4898434;29;20493;-56
2021/05/18 01:01:02;;;;;;;26.77;16.02;;;;;;;;;;4903398;29;20052;-56
2021/05/18 01:03:31;;;;;;;26.38;14.95;;;;;;;;;;4906785;29;20077;-56
2021/05/18 01:08:44;;;;;;;23.55;11.57;;;;;;;;;;4910595;29;20040;-57
2021/05/18 01:11:11;;;;;;;23.77;14.00;;;;;;;;;;4907329;29;20048;-56
2021/05/18 01:13:39;;;;;;;20.58;13.40;;;;;;;;;;4889058;29;20044;-54
2021/05/18 01:16:07;;;;;;;25.75;15.40;;;;;;;;;;4913534;29;20131;-57
2021/05/18 01:18:37;;;;;;;26.25;16.10;;;;;;;;;;4896552;29;20051;-55
2021/05/18 01:21:04;;;;;;;25.00;13.60;;;;;;;;;;4905815;29;20100;-55
2021/05/18 01:23:31;;;;;;;30.90;16.58;;;;;;;;;;4907421;29;20051;-56
2021/05/18 01:25:58;;;;;;;31.83;17.23;;;;;;;;;;4911525;29;20332;-54
2021/05/18 01:28:27;;;;;;;37.88;17.98;;;;;;;;;;4893058;29;20052;-56
2021/05/18 01:30:55;;;;;;;32.70;17.08;;;;;;;;;;4903599;29;20072;-57
2021/05/18 01:33:23;;;;;;;32.45;18.52;;;;;;;;;;4911370;29;20113;-56
2021/05/18 01:35:50;;;;;;;29.70;15.25;;;;;;;;;;4909645;29;20063;-57
2021/05/18 01:38:22;;;;;;;33.65;17.13;;;;;;;;;;4910682;29;20504;-57
2021/05/18 01:43:35;;;;;;;33.38;17.27;;;;;;;;;;4908051;29;20079;-57
2021/05/18 01:46:02;;;;;;;33.90;17.50;;;;;;;;;;4895105;29;20509;-54
2021/05/18 01:48:34;;;;;;;33.08;18.10;;;;;;;;;;4905217;29;20109;-56
2021/05/18 01:51:01;;;;;;;31.30;17.08;;;;;;;;;;4906457;29;20048;-58
2021/05/18 01:53:29;;;;;;;30.10;16.02;;;;;;;;;;4910035;29;20055;-56
2021/05/18 01:58:23;;;;;;;27.13;16.00;;;;;;;;;;4906544;29;20056;-57
2021/05/18 02:01:10;;;;;;;29.85;17.38;;;;;;;;;;4894555;29;20308;-57
2021/05/18 02:03:37;;;;;;;29.38;16.98;;;;;;;;;;4891611;29;20056;-57
2021/05/18 02:06:06;;;;;;;33.83;16.63;;;;;;;;;;4887982;29;20044;-56
2021/05/18 02:08:42;;;;;;;26.70;16.73;;;;;;;;;;4906820;29;20068;-56
2021/05/18 02:11:17;;;;;;;29.95;16.05;;;;;;;;;;4905136;29;20052;-57
2021/05/18 02:13:47;;;;;;;31.50;17.27;;;;;;;;;;4911980;29;20490;-56
2021/05/18 02:16:36;;;;;;;25.50;16.45;;;;;;;;;;4893180;29;20296;-56
2021/05/18 02:27:06;;;;;;;19.50;12.45;;;;;;;;;;4906184;29;20674;-54
2021/05/18 02:29:32;;;;;;;15.93;11.85;;;;;;;;;;4902646;29;20147;-55
2021/05/18 02:31:59;;;;;;;19.00;11.65;;;;;;;;;;4889664;29;20116;-57
2021/05/18 02:34:45;;;;;;;18.77;11.38;;;;;;;;;;4905447;29;20104;-56
2021/05/18 02:37:13;;;;;;;18.05;12.65;;;;;;;;;;4912796;29;20051;-56
2021/05/18 02:39:44;;;;;;;18.48;11.50;;;;;;;;;;4908371;29;20052;-55
2021/05/18 02:42:11;;;;;;;17.15;10.48;;;;;;;;;;4914799;29;20100;-56
2021/05/18 02:49:57;;;;;;;12.55;9.48;;;;;;;;;;4913301;29;20060;-56
2021/05/18 02:52:30;;;;;;;13.02;9.27;;;;;;;;;;4906201;29;20066;-59
2021/05/18 02:54:57;;;;;;;14.35;8.77;;;;;;;;;;4913415;29;20049;-56
2021/05/18 02:57:38;;;;;;;15.90;8.70;;;;;;;;;;4911241;29;20139;-57
2021/05/18 03:00:08;;;;;;;14.27;8.05;;;;;;;;;;4913597;29;20045;-56
2021/05/18 03:02:35;;;;;;;12.55;8.07;;;;;;;;;;4905997;29;20055;-57
2021/05/18 03:05:02;;;;;;;9.45;6.65;;;;;;;;;;4910383;29;20053;-57
2021/05/18 03:07:30;;;;;;;8.13;6.30;;;;;;;;;;4891535;29;20100;-56
2021/05/18 03:09:59;;;;;;;8.02;5.32;;;;;;;;;;4909466;29;20124;-57
2021/05/18 03:12:27;;;;;;;8.57;5.45;;;;;;;;;;4908781;29;20134;-55
2021/05/18 03:14:54;;;;;;;7.70;4.20;;;;;;;;;;4898778;29;20100;-57
2021/05/18 03:17:21;;;;;;;6.00;4.53;;;;;;;;;;4909280;29;20120;-57
2021/05/18 03:19:48;;;;;;;6.97;4.53;;;;;;;;;;4913555;29;20051;-56
2021/05/18 03:22:16;;;;;;;4.28;3.88;;;;;;;;;;4910907;29;20051;-54
2021/05/18 03:24:42;;;;;;;8.02;4.43;;;;;;;;;;4915453;29;20044;-57
2021/05/18 03:27:10;;;;;;;6.70;4.07;;;;;;;;;;4911123;29;20461;-57
2021/05/18 03:29:37;;;;;;;5.18;3.58;;;;;;;;;;4912442;29;20309;-57
2021/05/18 03:34:50;;;;;;;7.72;3.20;;;;;;;;;;4911081;29;20128;-57
2021/05/18 03:37:21;;;;;;;4.10;3.47;;;;;;;;;;4911986;29;20515;-55
2021/05/18 03:39:52;;;;;;;5.78;3.17;;;;;;;;;;4913773;29;20055;-56
2021/05/18 03:42:40;;;;;;;9.88;3.50;;;;;;;;;;4907668;29;20044;-57
2021/05/18 04:11:53;;;;;;;9.23;4.70;;;;;;;;;;4910258;29;20051;-57
2021/05/18 04:17:05;;;;;;;7.15;4.00;;;;;;;;;;4899284;29;20052;-56
2021/05/18 04:19:37;;;;;;;4.78;3.80;;;;;;;;;;4892587;29;20048;-59
2021/05/18 04:24:56;;;;;;;4.47;3.20;;;;;;;;;;4907797;29;20045;-56
2021/05/18 04:38:48;;;;;;;3.67;2.83;;;;;;;;;;4907216;29;20135;-60
2021/05/18 04:52:24;;;;;;;5.20;2.70;;;;;;;;;;4902615;29;20450;-57
2021/05/18 05:00:19;;;;;;;5.28;2.38;;;;;;;;;;4913912;29;20044;-57
2021/05/18 05:03:20;;;;;;;2.60;2.22;;;;;;;;;;4911832;29;20408;-57
2021/05/18 05:08:34;;;;;;;3.92;2.30;;;;;;;;;;4908187;29;20513;-57
2021/05/18 05:16:14;;;;;;;4.25;1.90;;;;;;;;;;4906608;29;20071;-57
2021/05/18 05:18:41;;;;;;;3.10;1.90;;;;;;;;;;4909976;29;20510;-57
2021/05/18 05:21:09;;;;;;;2.92;1.92;;;;;;;;;;4905070;29;20056;-56
2021/05/18 05:23:36;;;;;;;2.58;2.00;;;;;;;;;;4901296;29;20175;-58
2021/05/18 05:26:04;;;;;;;3.13;2.00;;;;;;;;;;4901595;29;20057;-57
2021/05/18 05:28:31;;;;;;;2.55;2.22;;;;;;;;;;4904250;29;20461;-57
2021/05/18 05:30:57;;;;;;;3.05;2.35;;;;;;;;;;4908940;29;20056;-56
2021/05/18 05:33:25;;;;;;;2.85;1.95;;;;;;;;;;4902911;29;20066;-56
2021/05/18 05:35:51;;;;;;;2.80;2.00;;;;;;;;;;4906830;29;20067;-57
2021/05/18 05:38:20;;;;;;;2.00;1.80;;;;;;;;;;4912443;29;20127;-57
2021/05/18 05:40:49;;;;;;;2.90;2.13;;;;;;;;;;4907694;29;20189;-57
2021/05/18 05:43:16;;;;;;;3.17;1.87;;;;;;;;;;4903929;29;20127;-57
2021/05/18 05:45:43;;;;;;;2.42;1.70;;;;;;;;;;4907469;29;20516;-58
2021/05/18 05:48:10;;;;;;;2.90;1.80;;;;;;;;;;4903494;29;20064;-57
2021/05/18 05:50:36;;;;;;;4.47;1.73;;;;;;;;;;4904365;29;20052;-57
2021/05/18 05:53:06;;;;;;;3.53;1.77;;;;;;;;;;4895434;29;20067;-55
2021/05/18 05:55:35;;;;;;;5.55;2.15;;;;;;;;;;4905241;29;20052;-57
2021/05/18 05:58:02;;;;;;;2.20;1.70;;;;;;;;;;4910913;29;20111;-58
2021/05/18 06:00:28;;;;;;;5.88;2.50;;;;;;;;;;4908870;29;20758;-58
2021/05/18 06:02:55;;;;;;;2.40;1.83;;;;;;;;;;4905312;29;20066;-56
2021/05/18 06:05:22;;;;;;;4.22;1.83;;;;;;;;;;4907900;29;20131;-54
2021/05/18 06:07:49;;;;;;;2.25;1.70;;;;;;;;;;4907968;29;20040;-58
2021/05/18 06:10:28;;;;;;;4.80;1.90;;;;;;;;;;4905768;29;20489;-58
2021/05/18 06:29:23;;;;;;;5.50;2.25;;;;;;;;;;4907413;29;20069;-57
2021/05/18 06:37:26;;;;;;;3.30;1.90;;;;;;;;;;4907526;29;20075;-58
2021/05/18 06:42:45;;;;;;;2.63;1.70;;;;;;;;;;4907896;29;20505;-57
2021/05/18 06:47:58;;;;;;;5.07;1.77;;;;;;;;;;4908329;29;20060;-58
2021/05/18 06:52:56;;;;;;;2.03;1.70;;;;;;;;;;4901422;29;20085;-58
2021/05/18 06:55:27;;;;;;;3.72;1.88;;;;;;;;;;4907848;29;20609;-56
2021/05/18 06:58:00;;;;;;;4.25;2.40;;;;;;;;;;4910132;29;20172;-59
2021/05/18 07:00:28;;;;;;;2.42;1.80;;;;;;;;;;4902123;29;20131;-57
2021/05/18 07:02:57;;;;;;;3.78;2.10;;;;;;;;;;4910371;29;20056;-58
2021/05/18 07:08:08;;;;;;;2.45;2.20;;;;;;;;;;4911035;29;20046;-59
2021/05/18 07:10:35;;;;;;;4.25;2.03;;;;;;;;;;4905589;29;20067;-58
2021/05/18 07:13:02;;;;;;;3.25;2.47;;;;;;;;;;4909789;29;20115;-57
2021/05/18 07:15:29;;;;;;;3.08;2.10;;;;;;;;;;4911480;29;20062;-57
2021/05/18 07:17:56;;;;;;;3.65;2.03;;;;;;;;;;4909715;29;20047;-57
2021/05/18 07:20:24;;;;;;;3.35;2.28;;;;;;;;;;4910961;29;20048;-58
2021/05/18 07:22:54;;;;;;;2.92;2.40;;;;;;;;;;4906394;29;20597;-55
2021/05/18 07:25:21;;;;;;;3.75;2.30;;;;;;;;;;4909614;29;20048;-56
2021/05/18 07:27:50;;;;;;;3.72;2.22;;;;;;;;;;4904866;29;20052;-57
2021/05/18 07:30:17;;;;;;;2.65;2.08;;;;;;;;;;4908577;29;20047;-58
2021/05/18 07:32:44;;;;;;;4.55;2.28;;;;;;;;;;4907072;29;20135;-58
2021/05/18 07:35:11;;;;;;;2.38;1.85;;;;;;;;;;4911736;29;20516;-59
2021/05/18 07:37:38;;;;;;;2.53;2.30;;;;;;;;;;4910358;29;20044;-56
2021/05/18 07:40:06;;;;;;;6.05;2.13;;;;;;;;;;4907963;29;20055;-57
2021/05/18 07:42:33;;;;;;;4.60;2.30;;;;;;;;;;4910516;29;20058;-56
2021/05/18 07:45:00;;;;;;;5.70;2.33;;;;;;;;;;4910055;29;20512;-55
2021/05/18 07:47:32;;;;;;;3.72;2.40;;;;;;;;;;4908718;29;20047;-56
2021/05/18 07:50:05;;;;;;;2.75;2.17;;;;;;;;;;4909017;29;20530;-57
2021/05/18 08:06:18;;;;;;;2.80;2.40;;;;;;;;;;4905720;29;20044;-58
2021/05/18 08:08:46;;;;;;;2.90;2.15;;;;;;;;;;4908171;29;20053;-57
2021/05/18 08:11:13;;;;;;;4.00;2.53;;;;;;;;;;4906459;29;20652;-55
2021/05/18 08:13:55;;;;;;;2.80;2.50;;;;;;;;;;4904602;29;20055;-57
2021/05/18 08:22:02;;;;;;;4.20;2.45;;;;;;;;;;4906071;29;20160;-57
2021/05/18 08:55:34;;;;;;;7.03;3.50;;;;;;;;;;4892151;29;20143;-57
2021/05/18 09:44:41;;;;;;;4.80;3.58;;;;;;;;;;4904846;29;20111;-58
2021/05/18 10:35:51;;;;;;;6.57;4.05;;;;;;;;;;4909634;29;20076;-58
2021/05/18 10:38:23;;;;;;;6.32;3.40;;;;;;;;;;4908925;29;20040;-59
2021/05/18 10:41:09;;;;;;;4.50;3.75;;;;;;;;;;4905310;29;20056;-57
2021/05/18 10:43:36;;;;;;;7.22;3.80;;;;;;;;;;4914497;29;20044;-55
2021/05/18 10:46:12;;;;;;;4.15;3.67;;;;;;;;;;4905959;29;20120;-58
2021/05/18 10:48:42;;;;;;;5.30;3.53;;;;;;;;;;4914733;29;20060;-59
2021/05/18 10:51:39;;;;;;;5.78;2.97;;;;;;;;;;4905725;29;20045;-59
2021/05/18 10:54:18;;;;;;;6.75;2.65;;;;;;;;;;4912820;29;20457;-58
2021/05/18 10:59:21;;;;;;;3.30;2.50;;;;;;;;;;4908254;29;20052;-59
2021/05/18 11:01:56;;;;;;;3.03;2.60;;;;;;;;;;4910697;29;20053;-59
2021/05/18 11:04:23;;;;;;;4.38;2.67;;;;;;;;;;4910074;29;20051;-59
2021/05/18 11:06:50;;;;;;;4.28;2.53;;;;;;;;;;4909052;29;20127;-59
2021/05/18 11:09:22;;;;;;;4.38;2.33;;;;;;;;;;4909502;29;20084;-59
2021/05/18 11:12:10;;;;;;;2.70;2.25;;;;;;;;;;4909822;29;20095;-59
2021/05/18 11:14:39;;;;;;;3.17;2.00;;;;;;;;;;4910858;29;20674;-59
2021/05/18 11:17:07;;;;;;;4.55;2.20;;;;;;;;;;4913613;29;20120;-58
2021/05/18 11:19:33;;;;;;;2.60;1.85;;;;;;;;;;4903347;29;20140;-59
2021/05/18 11:22:04;;;;;;;5.20;2.40;;;;;;;;;;4909449;29;20408;-58
2021/05/18 11:24:32;;;;;;;3.38;2.20;;;;;;;;;;4908247;29;20501;-59
2021/05/18 11:26:59;;;;;;;4.65;2.13;;;;;;;;;;4908053;29;20076;-59
2021/05/18 11:29:38;;;;;;;2.42;2.20;;;;;;;;;;4907956;29;20097;-59
2021/05/18 11:32:09;;;;;;;5.50;2.10;;;;;;;;;;4913200;29;20063;-59
2021/05/18 11:34:55;;;;;;;3.92;1.80;;;;;;;;;;4913909;29;20505;-59
2021/05/18 11:37:21;;;;;;;4.57;2.22;;;;;;;;;;4912875;29;20218;-59
2021/05/18 11:39:50;;;;;;;4.63;2.30;;;;;;;;;;4908388;29;20040;-59
2021/05/18 11:42:27;;;;;;;3.35;2.08;;;;;;;;;;4912767;29;20101;-59
2021/05/18 11:45:16;;;;;;;6.68;2.45;;;;;;;;;;4904779;29;20142;-59
2021/05/18 11:47:45;;;;;;;4.40;2.27;;;;;;;;;;4912046;29;20055;-59
2021/05/18 11:50:21;;;;;;;7.60;2.70;;;;;;;;;;4908380;29;20293;-59
2021/05/18 11:52:48;;;;;;;3.58;2.58;;;;;;;;;;4893239;29;20088;-59
2021/05/18 11:55:21;;;;;;;3.30;2.20;;;;;;;;;;4908656;29;20044;-59
2021/05/18 11:57:52;;;;;;;4.07;2.50;;;;;;;;;;4911405;29;20056;-59
2021/05/18 12:00:19;;;;;;;4.00;2.50;;;;;;;;;;4901638;29;20083;-59
2021/05/18 12:03:03;;;;;;;4.32;2.25;;;;;;;;;;4904398;29;20135;-60
2021/05/18 12:05:30;;;;;;;3.08;2.42;;;;;;;;;;4909084;29;20044;-59
2021/05/18 12:07:58;;;;;;;4.03;2.30;;;;;;;;;;4914750;29;20072;-60
2021/05/18 12:10:31;;;;;;;5.53;2.58;;;;;;;;;;4909281;29;20071;-59
2021/05/18 12:12:59;;;;;;;4.25;2.42;;;;;;;;;;4907917;29;20178;-59
2021/05/18 12:15:27;;;;;;;3.50;2.40;;;;;;;;;;4911678;29;20145;-59
2021/05/18 12:17:55;;;;;;;3.10;2.65;;;;;;;;;;4912099;29;20040;-59
2021/05/18 12:20:22;;;;;;;2.83;2.40;;;;;;;;;;4908620;29;20055;-59
2021/05/18 12:22:50;;;;;;;4.30;2.80;;;;;;;;;;4905881;29;20059;-59
2021/05/18 12:25:38;;;;;;;3.03;2.25;;;;;;;;;;4905390;29;20041;-59
2021/05/18 12:28:07;;;;;;;3.37;2.30;;;;;;;;;;4908196;29;20381;-59
2021/05/18 12:30:35;;;;;;;3.72;2.30;;;;;;;;;;4908680;29;20300;-59
2021/05/18 12:33:02;;;;;;;4.38;2.30;;;;;;;;;;4911034;29;20139;-59
2021/05/18 12:35:29;;;;;;;4.97;2.50;;;;;;;;;;4907482;29;20047;-59
2021/05/18 12:37:56;;;;;;;3.42;2.47;;;;;;;;;;4909859;29;20055;-59
2021/05/18 12:40:25;;;;;;;3.78;3.00;;;;;;;;;;4909856;29;20052;-59
2021/05/18 12:42:53;;;;;;;4.32;3.10;;;;;;;;;;4909541;29;20056;-59
2021/05/18 12:45:21;;;;;;;12.57;3.17;;;;;;;;;;4907749;29;20104;-59
2021/05/18 12:47:52;;;;;;;7.53;3.10;;;;;;;;;;4907683;29;20101;-59
2021/05/18 12:50:34;;;;;;;4.75;3.17;;;;;;;;;;4905355;29;20067;-59
2021/05/18 12:53:01;;;;;;;3.75;3.10;;;;;;;;;;4904774;29;20060;-59
2021/05/18 12:55:30;;;;;;;3.90;3.15;;;;;;;;;;4905475;29;20100;-59
2021/05/18 12:58:06;;;;;;;4.68;3.05;;;;;;;;;;4907943;29;20044;-59
2021/05/18 13:00:38;;;;;;;4.78;3.00;;;;;;;;;;4909529;29;20285;-59
2021/05/18 13:03:12;;;;;;;4.97;3.30;;;;;;;;;;4907973;29;20112;-59
2021/05/18 13:05:41;;;;;;;4.28;3.00;;;;;;;;;;4906203;29;20045;-59
2021/05/18 13:08:13;;;;;;;6.43;2.60;;;;;;;;;;4906510;29;20392;-59
2021/05/18 13:11:04;;;;;;;4.43;2.60;;;;;;;;;;4902916;29;20073;-59
2021/05/18 13:13:37;;;;;;;3.05;2.33;;;;;;;;;;4905994;29;20128;-59
2021/05/18 13:16:11;;;;;;;4.32;2.45;;;;;;;;;;4905936;29;20081;-59
2021/05/18 13:18:40;;;;;;;3.85;2.10;;;;;;;;;;4909319;29;20044;-59
2021/05/18 13:21:07;;;;;;;8.15;2.17;;;;;;;;;;4906474;29;20048;-59
2021/05/18 13:28:48;;;;;;;2.00;1.80;;;;;;;;;;4908564;29;20363;-59
2021/05/18 13:31:15;;;;;;;1.92;1.83;;;;;;;;;;4905153;29;20120;-58
2021/05/18 13:33:42;;;;;;;5.57;1.80;;;;;;;;;;4908824;29;20120;-59
2021/05/18 13:36:09;;;;;;;2.38;1.73;;;;;;;;;;4908884;29;20044;-59
2021/05/18 13:38:37;;;;;;;2.15;1.67;;;;;;;;;;4908264;29;20099;-59
2021/05/18 13:41:04;;;;;;;5.90;2.40;;;;;;;;;;4904489;29;20048;-59
2021/05/18 13:43:33;;;;;;;3.63;1.75;;;;;;;;;;4905068;29;20124;-59
2021/05/18 13:46:00;;;;;;;4.75;2.33;;;;;;;;;;4904873;29;20041;-59
2021/05/18 13:48:27;;;;;;;2.93;2.07;;;;;;;;;;4907414;29;20063;-60
2021/05/18 13:50:54;;;;;;;2.35;2.10;;;;;;;;;;4906224;29;20807;-61
2021/05/18 13:53:38;;;;;;;3.13;1.70;;;;;;;;;;4894303;29;20178;-59
2021/05/18 13:56:04;;;;;;;3.47;1.90;;;;;;;;;;4906932;29;20131;-60
2021/05/18 13:58:32;;;;;;;2.28;1.98;;;;;;;;;;4912650;29;20056;-59
2021/05/18 14:00:58;;;;;;;2.10;1.90;;;;;;;;;;4906669;29;20072;-59
2021/05/18 14:03:25;;;;;;;3.70;2.20;;;;;;;;;;4901739;29;20056;-59
2021/05/18 14:05:52;;;;;;;2.75;2.10;;;;;;;;;;4907180;29;20285;-59
2021/05/18 14:10:47;;;;;;;3.60;2.15;;;;;;;;;;4907437;29;20112;-59
2021/05/18 14:13:14;;;;;;;2.45;2.03;;;;;;;;;;4907286;29;20080;-59
2021/05/18 14:15:44;;;;;;;2.10;1.83;;;;;;;;;;4906403;29;20565;-59
2021/05/18 14:18:11;;;;;;;3.87;1.80;;;;;;;;;;4907420;29;20044;-59
2021/05/18 14:20:38;;;;;;;5.68;2.45;;;;;;;;;;4907168;29;20055;-59
2021/05/18 14:23:05;;;;;;;;;;;;;;;;;;4908321;29;20059;-60
2021/05/18 14:25:34;;;;;;;4.15;2.05;;;;;;;;;;4905519;29;20041;-59
2021/05/18 14:28:21;;;;;;;4.05;2.20;;;;;;;;;;4903923;29;20514;-59
2021/05/18 14:30:48;;;;;;;4.18;2.28;;;;;;;;;;4905557;29;20103;-59
2021/05/18 14:33:17;;;;;;;4.05;2.33;;;;;;;;;;4909105;29;20068;-59
2021/05/18 14:35:44;;;;;;;3.97;2.35;;;;;;;;;;4909562;29;20087;-59
2021/05/18 14:38:20;;;;;;;3.88;2.33;;;;;;;;;;4909918;29;20045;-59
2021/05/18 14:55:00;;;;;;;3.85;2.30;;;;;;;;;;4905431;29;20157;-59
2021/05/18 14:57:17;;;;;;;2.40;2.15;;;;;;;;;;4903361;29;20064;-59
2021/05/18 14:59:44;;;;;;;4.43;2.50;;;;;;;;;;4902539;29;20096;-59
2021/05/18 15:02:10;;;;;;;2.95;2.33;;;;;;;;;;4903291;29;20324;-59
2021/05/18 15:04:38;;;;;;;5.32;2.28;;;;;;;;;;4905057;29;20044;-59
2021/05/18 15:07:07;;;;;;;3.25;2.10;;;;;;;;;;4905750;29;20040;-59
2021/05/18 15:09:35;;;;;;;2.78;2.00;;;;;;;;;;4903345;29;20048;-59
2021/05/18 15:12:03;;;;;;;2.83;2.00;;;;;;;;;;4907041;29;20120;-59
2021/05/18 15:14:29;;;;;;;2.92;2.38;;;;;;;;;;4902617;29;20041;-59
2021/05/18 15:16:56;;;;;;;2.22;1.92;;;;;;;;;;4887002;29;20052;-59
2021/05/18 15:19:24;;;;;;;2.23;2.00;;;;;;;;;;4909051;29;20095;-59
2021/05/18 15:21:51;;;;;;;4.20;2.25;;;;;;;;;;4906232;29;20044;-59
2021/05/18 15:24:18;;;;;;;2.60;1.92;;;;;;;;;;4907041;29;20056;-59
2021/05/18 15:26:46;;;;;;;4.25;2.25;;;;;;;;;;4904650;29;20068;-59
2021/05/18 15:29:13;;;;;;;2.47;2.03;;;;;;;;;;4908145;29;20071;-59
2021/05/18 15:31:40;;;;;;;3.28;2.47;;;;;;;;;;4891966;29;20470;-59
2021/05/18 15:34:10;;;;;;;4.68;2.75;;;;;;;;;;4890217;29;20516;-59
2021/05/18 15:36:37;;;;;;;2.67;1.92;;;;;;;;;;4892287;29;20067;-59
2021/05/18 15:39:04;;;;;;;3.65;2.42;;;;;;;;;;4892076;29;20111;-59
2021/05/18 15:41:31;;;;;;;4.22;2.13;;;;;;;;;;4891448;29;20041;-59
2021/05/18 15:44:00;;;;;;;3.72;2.78;;;;;;;;;;4872030;29;20105;-59
2021/05/18 15:46:26;;;;;;;4.35;2.67;;;;;;;;;;4889402;29;20525;-59
2021/05/18 15:48:54;;;;;;;4.35;2.72;;;;;;;;;;4884857;29;20129;-59
2021/05/18 15:51:21;;;;;;;3.00;2.70;;;;;;;;;;4890549;29;20040;-59
2021/05/18 15:53:48;;;;;;;8.93;2.53;;;;;;;;;;4890828;29;20124;-59
2021/05/18 15:56:18;;;;;;;4.00;2.10;;;;;;;;;;4884047;29;20119;-59
2021/05/18 15:58:45;;;;;;;;;;;;;;;;;;4886212;29;20519;-59
2021/05/18 16:01:11;;;;;;;4.55;2.00;;;;;;;;;;4892439;29;19923;-59
2021/05/18 16:03:38;;;;;;;3.78;2.38;;;;;;;;;;4890865;29;20037;-59
2021/05/18 16:06:05;;;;;;;3.72;2.25;;;;;;;;;;4890791;29;20044;-59
2021/05/18 16:11:09;;;;;;;3.78;2.30;;;;;;;;;;4892840;29;20044;-59
2021/05/18 16:13:38;;;;;;;6.40;2.72;;;;;;;;;;4888407;29;20052;-59
2021/05/18 16:16:15;;;;;;;5.15;2.40;;;;;;;;;;4887258;29;20048;-62
2021/05/18 16:18:42;;;;;;;2.97;2.08;;;;;;;;;;4886378;29;20072;-59
2021/05/18 16:21:10;;;;;;;3.00;2.25;;;;;;;;;;4891200;29;20391;-59
2021/05/18 16:23:40;;;;;;;4.15;2.38;;;;;;;;;;4886560;29;20055;-59
2021/05/18 16:26:08;;;;;;;4.05;2.70;;;;;;;;;;4892184;29;20081;-59
2021/05/18 16:28:36;;;;;;;4.00;2.13;;;;;;;;;;4894305;29;20466;-59
2021/05/18 16:31:03;;;;;;;5.93;2.10;;;;;;;;;;4893655;29;20101;-59
2021/05/18 16:33:30;;;;;;;3.50;2.40;;;;;;;;;;4910038;29;20052;-59
2021/05/18 16:35:57;;;;;;;3.97;1.80;;;;;;;;;;4909067;29;20647;-59
2021/05/18 16:38:24;;;;;;;2.42;2.08;;;;;;;;;;4910763;29;20131;-59
2021/05/18 16:40:53;;;;;;;4.18;2.42;;;;;;;;;;4903545;29;20525;-59
2021/05/18 16:43:20;;;;;;;;;;;;;;;;;;4912261;29;20118;-58
2021/05/18 16:45:47;;;;;;;2.50;2.08;;;;;;;;;;4911180;29;19930;-59
2021/05/18 16:48:14;;;;;;;3.03;2.13;;;;;;;;;;4908876;29;20052;-59
2021/05/18 16:50:41;;;;;;;6.35;2.95;;;;;;;;;;4907862;29;20056;-59
2021/05/18 16:53:09;;;;;;;4.97;2.30;;;;;;;;;;4907587;29;20045;-60
2021/05/18 16:55:36;;;;;;;3.25;1.90;;;;;;;;;;4909384;29;20339;-57
2021/05/18 16:58:03;;;;;;;2.80;2.13;;;;;;;;;;4895917;29;20056;-59
2021/05/18 17:00:30;;;;;;;4.63;2.10;;;;;;;;;;4909770;29;20044;-58
2021/05/18 17:02:57;;;;;;;3.95;2.38;;;;;;;;;;4911170;29;20123;-59
2021/05/18 17:05:27;;;;;;;;;;;;;;;;;;4909124;29;20135;-59
2021/05/18 17:07:55;;;;;;;4.15;2.17;;;;;;;;;;4908291;29;20738;-59
2021/05/18 17:10:22;;;;;;;3.50;2.00;;;;;;;;;;4913134;29;20044;-59
2021/05/18 17:12:50;;;;;;;3.40;2.05;;;;;;;;;;4914287;29;20048;-59
2021/05/18 17:15:17;;;;;;;4.43;2.15;;;;;;;;;;4912054;29;20032;-59
2021/05/18 17:17:45;;;;;;;7.60;1.95;;;;;;;;;;4912521;29;20508;-57
2021/05/18 17:20:12;;;;;;;;;;;;;;;;;;4910821;29;20063;-59
2021/05/18 17:22:40;;;;;;;2.92;2.03;;;;;;;;;;4909758;29;19927;-59
2021/05/18 17:25:08;;;;;;;5.07;2.38;;;;;;;;;;4908683;29;20044;-58
2021/05/18 17:27:38;;;;;;;2.30;2.08;;;;;;;;;;4909885;29;20055;-58
2021/05/18 17:30:08;;;;;;;3.53;2.28;;;;;;;;;;4905029;29;20083;-58
2021/05/18 17:32:36;;;;;;;7.32;2.45;;;;;;;;;;4905544;29;20084;-60
2021/05/18 17:35:03;;;;;;;3.53;2.22;;;;;;;;;;4903022;29;20146;-58
2021/05/18 17:37:30;;;;;;;4.35;2.63;;;;;;;;;;4908167;29;20367;-58
2021/05/18 17:39:58;;;;;;;2.67;2.33;;;;;;;;;;4906323;29;20059;-58
2021/05/18 17:42:25;;;;;;;4.88;2.55;;;;;;;;;;4903743;29;20041;-58
2021/05/18 17:44:57;;;;;;;4.65;2.10;;;;;;;;;;4906082;29;20051;-58
2021/05/18 17:47:24;;;;;;;6.43;2.30;;;;;;;;;;4886891;29;20051;-58
2021/05/18 17:49:52;;;;;;;4.47;2.22;;;;;;;;;;4906291;29;20135;-58
2021/05/18 17:52:19;;;;;;;3.80;2.40;;;;;;;;;;4905630;29;20101;-58
2021/05/18 17:54:47;;;;;;;7.05;3.17;;;;;;;;;;4903828;29;20036;-56
2021/05/18 17:57:14;;;;;;;4.57;2.53;;;;;;;;;;4893882;29;20596;-57
2021/05/18 17:59:40;;;;;;;7.55;3.00;;;;;;;;;;4910996;29;20040;-58
2021/05/18 18:02:09;;;;;;;7.22;2.75;;;;;;;;;;4906767;29;20104;-56
2021/05/18 18:04:37;;;;;;;5.72;2.70;;;;;;;;;;4906719;29;20044;-58
2021/05/18 18:07:22;;;;;;;8.38;3.08;;;;;;;;;;4899402;29;20352;-57
2021/05/18 18:09:50;;;;;;;4.70;2.90;;;;;;;;;;4908051;29;20131;-57
2021/05/18 18:12:17;;;;;;;5.90;2.55;;;;;;;;;;4907119;29;20296;-58
2021/05/18 18:14:45;;;;;;;6.88;3.10;;;;;;;;;;4905657;29;20481;-58
2021/05/18 18:17:14;;;;;;;4.07;2.30;;;;;;;;;;4905274;29;20059;-56
2021/05/18 18:19:42;;;;;;;6.28;2.80;;;;;;;;;;4907059;29;20054;-58
2021/05/18 18:22:08;;;;;;;3.00;2.25;;;;;;;;;;4903249;29;20047;-58
2021/05/18 18:24:37;;;;;;;6.57;2.30;;;;;;;;;;4905989;29;20501;-58
2021/05/18 18:27:07;;;;;;;6.00;2.53;;;;;;;;;;4906236;29;20135;-58
2021/05/18 18:29:34;;;;;;;4.35;2.63;;;;;;;;;;4905521;29;20108;-56
2021/05/18 18:32:00;;;;;;;4.03;2.30;;;;;;;;;;4907258;29;20060;-58
2021/05/18 18:34:28;;;;;;;8.10;2.90;;;;;;;;;;4913821;29;20425;-57
2021/05/18 18:36:58;;;;;;;4.22;2.42;;;;;;;;;;4911005;29;20036;-57
2021/05/18 18:39:25;;;;;;;7.88;2.60;;;;;;;;;;4911294;29;20048;-61
2021/05/18 18:41:52;;;;;;;6.80;2.40;;;;;;;;;;4905993;29;20523;-57
2021/05/18 18:44:18;;;;;;;6.50;2.63;;;;;;;;;;4901022;29;20111;-57
2021/05/18 18:46:47;;;;;;;7.43;2.80;;;;;;;;;;4906567;29;20047;-57
2021/05/18 18:49:17;;;;;;;7.05;2.70;;;;;;;;;;4909885;29;20064;-56
2021/05/18 18:51:45;;;;;;;4.65;2.55;;;;;;;;;;4910128;29;20056;-57
2021/05/18 18:54:12;;;;;;;6.25;2.63;;;;;;;;;;4906656;29;20060;-57
2021/05/18 18:56:40;;;;;;;8.20;2.88;;;;;;;;;;4906331;29;20072;-56
2021/05/18 18:59:06;;;;;;;5.25;2.80;;;;;;;;;;4905857;29;20682;-57
2021/05/18 19:01:37;;;;;;;6.65;2.80;;;;;;;;;;4905767;29;20070;-58
2021/05/18 19:04:13;;;;;;;6.32;3.35;;;;;;;;;;4905198;29;20596;-57
2021/05/18 19:14:29;;;;;;;6.97;3.60;;;;;;;;;;4908087;29;20041;-57
2021/05/18 19:16:57;;;;;;;16.10;4.13;;;;;;;;;;4909200;29;20484;-57
2021/05/18 19:19:23;;;;;;;7.30;3.47;;;;;;;;;;4906150;29;20314;-54
2021/05/18 19:21:50;;;;;;;6.30;3.45;;;;;;;;;;4908398;29;20461;-55
2021/05/18 19:24:22;;;;;;;8.63;4.05;;;;;;;;;;4904961;29;20062;-55
2021/05/18 19:26:49;;;;;;;10.00;3.83;;;;;;;;;;4911400;29;20051;-57
2021/05/18 19:29:15;;;;;;;12.27;4.90;;;;;;;;;;4907273;29;20096;-57
2021/05/18 19:31:42;;;;;;;7.97;3.70;;;;;;;;;;4905756;29;20055;-56
2021/05/18 19:34:15;;;;;;;9.18;4.60;;;;;;;;;;4907741;29;20047;-57
2021/05/18 19:42:19;;;;;;;13.13;4.30;;;;;;;;;;4905541;29;20069;-57
2021/05/18 19:44:56;;;;;;;9.05;4.00;;;;;;;;;;4907664;29;20053;-52
2021/05/18 19:50:15;;;;;;;9.98;4.10;;;;;;;;;;4905724;29;20084;-56
2021/05/18 19:52:45;;;;;;;11.93;3.90;;;;;;;;;;4894596;29;20044;-56
2021/05/18 19:55:15;;;;;;;10.35;4.13;;;;;;;;;;4909725;29;20586;-55
2021/05/18 20:11:39;;;;;;;10.48;4.68;;;;;;;;;;4909027;29;20172;-57
2021/05/18 20:22:34;;;;;;;16.27;4.38;;;;;;;;;;4910852;29;20071;-56
2021/05/18 20:24:54;;;;;;;12.68;4.20;;;;;;;;;;4911001;29;20044;-55
2021/05/18 20:27:23;;;;;;;13.07;4.47;;;;;;;;;;4906394;29;20052;-56
2021/05/18 20:29:51;;;;;;;12.63;4.43;;;;;;;;;;4905091;29;20044;-58
2021/05/18 20:32:26;;;;;;;9.18;4.28;;;;;;;;;;4907498;29;20560;-56